createdAt,value
2023-03-11T00:02:41.299Z,6.00
2023-03-11T00:07:44.551Z,5.00
2023-03-11T00:12:47.738Z,5.00
2023-03-11T00:17:51.752Z,6.00
2023-03-11T00:22:55.466Z,6.33
2023-03-11T00:27:59.001Z,6.33
2023-03-11T00:33:02.344Z,6.50
2023-03-11T00:38:07.528Z,7.00
2023-03-11T00:43:10.838Z,4.33
2023-03-11T00:48:15.064Z,6.00
2023-03-11T00:53:18.357Z,6.50
2023-03-11T00:58:27.472Z,5.00
2023-03-11T01:03:32.224Z,7.00
2023-03-11T01:08:36.019Z,7.50
2023-03-11T01:13:40.556Z,7.33
2023-03-11T01:18:43.840Z,9.00
2023-03-11T01:23:47.107Z,7.00
2023-03-11T01:28:50.337Z,8.00
2023-03-11T01:33:53.547Z,8.00
2023-03-11T01:38:56.758Z,7.00
2023-03-11T01:44:00.132Z,6.00
2023-03-11T01:49:12.597Z,6.00
2023-03-11T01:54:22.435Z,5.00
2023-03-11T02:04:35.081Z,3.00
2023-03-11T02:09:38.915Z,3.50
2023-03-11T02:14:46.435Z,3.00
2023-03-11T02:20:09.103Z,1.50
2023-03-11T02:25:19.277Z,2.00
2023-03-11T02:30:24.035Z,1.00
2023-03-11T02:35:30.301Z,0.00
2023-03-11T02:40:53.990Z,0.00
2023-03-11T02:45:58.325Z,0.00
2023-03-11T02:51:02.611Z,0.00
2023-03-11T02:56:06.708Z,1.00
2023-03-11T03:01:10.417Z,0.33
2023-03-11T03:06:16.473Z,0.00
2023-03-11T03:11:20.224Z,3.00
2023-03-11T03:16:25.158Z,0.00
2023-03-11T03:21:28.735Z,0.00
2023-03-11T03:26:32.408Z,0.00
2023-03-11T03:31:36.179Z,0.00
2023-03-11T03:36:40.023Z,0.00
2023-03-11T03:41:43.356Z,0.00
2023-03-11T03:46:47.440Z,0.00
2023-03-11T03:51:50.944Z,0.00
2023-03-11T03:57:07.283Z,0.00
2023-03-11T04:02:14.611Z,0.00
2023-03-11T04:07:19.018Z,0.00
2023-03-11T04:12:22.518Z,0.00
2023-03-11T04:17:25.853Z,0.00
2023-03-11T04:22:29.766Z,1.00
2023-03-11T04:27:34.144Z,0.00
2023-03-11T04:32:38.436Z,0.00
2023-03-11T04:37:42.455Z,1.00
2023-03-11T04:42:45.987Z,0.00
2023-03-11T04:47:51.151Z,1.00
2023-03-11T04:52:56.786Z,0.00
2023-03-11T04:58:00.451Z,0.00
2023-03-11T05:03:04.219Z,0.00
2023-03-11T05:08:07.962Z,0.00
2023-03-11T05:13:11.667Z,0.00
2023-03-11T05:18:16.302Z,0.00
2023-03-11T05:23:21.779Z,1.00
2023-03-11T05:28:25.352Z,1.00
2023-03-11T05:33:34.969Z,2.00
2023-03-11T05:38:39.637Z,2.00
2023-03-11T05:43:43.468Z,1.00
2023-03-11T05:48:48.885Z,2.00
2023-03-11T05:53:52.971Z,1.00
2023-03-11T05:59:02.771Z,2.00
2023-03-11T06:04:08.327Z,0.00
2023-03-11T06:09:13.565Z,0.00
2023-03-11T06:14:17.621Z,0.00
2023-03-11T06:19:22.596Z,1.00
2023-03-11T06:24:27.209Z,1.00
2023-03-11T06:29:31.573Z,1.00
2023-03-11T06:34:35.305Z,1.00
2023-03-11T06:39:39.198Z,1.00
2023-03-11T06:44:42.841Z,0.00
2023-03-11T06:49:46.940Z,1.00
2023-03-11T06:54:50.359Z,1.00
2023-03-11T06:59:54.212Z,1.00
2023-03-11T07:04:59.125Z,2.00
2023-03-11T07:10:02.695Z,2.00
2023-03-11T07:15:07.966Z,1.00
2023-03-11T07:20:12.346Z,2.00
2023-03-11T07:25:16.340Z,1.00
2023-03-11T07:30:19.735Z,1.00
2023-03-11T07:35:23.492Z,2.00
2023-03-11T07:40:26.772Z,1.00
2023-03-11T07:45:30.050Z,0.00
2023-03-11T07:50:33.387Z,4.00
2023-03-11T07:55:37.881Z,1.00
2023-03-11T08:00:41.153Z,2.00
2023-03-11T08:05:45.101Z,0.00
2023-03-11T08:10:48.420Z,3.00
2023-03-11T08:15:51.662Z,6.00
2023-03-11T08:20:55.791Z,4.00
2023-03-11T08:25:59.755Z,5.00
2023-03-11T08:31:04.081Z,8.00
2023-03-11T08:36:08.471Z,6.00
2023-03-11T08:41:12.153Z,9.50
2023-03-11T08:46:25.640Z,5.50
2023-03-11T08:51:30.496Z,5.00
2023-03-11T08:56:33.846Z,5.00
2023-03-11T09:01:37.149Z,5.50
2023-03-11T09:06:44.761Z,3.00
2023-03-11T09:11:48.850Z,5.00
2023-03-11T09:16:52.559Z,6.00
2023-03-11T09:21:55.875Z,7.00
2023-03-11T09:26:59.141Z,5.00
2023-03-11T09:32:02.356Z,5.00
2023-03-11T09:37:05.639Z,4.00
2023-03-11T09:42:27.475Z,8.00
2023-03-11T09:48:06.255Z,6.00
2023-03-11T09:53:27.944Z,9.00
2023-03-11T09:58:47.386Z,10.00
2023-03-11T10:03:54.808Z,5.33
2023-03-11T10:09:48.336Z,8.00
2023-03-11T10:14:57.577Z,6.00
2023-03-11T10:20:13.162Z,5.00
2023-03-11T10:25:20.159Z,7.67
2023-03-11T10:30:30.569Z,7.00
2023-03-11T10:35:46.323Z,5.33
2023-03-11T10:40:53.117Z,8.00
2023-03-11T10:45:56.418Z,6.00
2023-03-11T10:51:04.666Z,4.00
2023-03-11T10:56:25.701Z,7.00
2023-03-11T11:01:30.007Z,10.00
2023-03-11T11:06:35.446Z,7.00
2023-03-11T11:11:39.842Z,7.00
2023-03-11T11:16:43.184Z,4.00
2023-03-11T11:21:52.475Z,1.00
2023-03-11T11:27:25.220Z,4.00
2023-03-11T11:32:29.544Z,8.00
2023-03-11T11:37:36.327Z,6.00
2023-03-11T11:43:01.404Z,6.50
2023-03-11T11:48:20.089Z,3.67
2023-03-11T11:53:55.780Z,2.00
2023-03-11T11:58:59.035Z,4.00
2023-03-11T12:04:40.804Z,4.00
2023-03-11T12:10:22.837Z,8.00
2023-03-11T12:15:31.821Z,1.00
2023-03-11T12:20:50.075Z,7.00
2023-03-11T12:26:14.555Z,6.50
2023-03-11T12:31:18.000Z,10.00
2023-03-11T12:36:32.767Z,6.00
2023-03-11T12:41:42.331Z,8.00
2023-03-11T12:46:54.865Z,6.50
2023-03-11T12:52:16.111Z,6.00
2023-03-11T12:57:19.511Z,4.00
2023-03-11T13:03:03.241Z,7.00
2023-03-11T13:08:15.375Z,9.00
2023-03-11T13:13:33.708Z,3.00
2023-03-11T13:18:37.281Z,1.00
2023-03-11T13:23:40.696Z,8.50
2023-03-11T13:28:57.065Z,8.00
2023-03-11T13:34:30.197Z,6.50
2023-03-11T13:39:55.086Z,5.67
2023-03-11T13:44:58.655Z,3.00
2023-03-11T13:50:03.890Z,6.00
2023-03-11T13:55:20.650Z,8.00
2023-03-11T14:00:26.002Z,3.00
2023-03-11T14:05:34.139Z,7.00
2023-03-11T14:10:37.406Z,6.00
2023-03-11T14:16:13.421Z,6.00
2023-03-11T14:21:19.017Z,7.00
2023-03-11T14:26:29.365Z,6.67
2023-03-11T14:31:40.528Z,8.67
2023-03-11T14:36:44.602Z,5.00
2023-03-11T14:41:48.517Z,4.00
2023-03-11T14:46:52.747Z,8.00
2023-03-11T14:52:01.557Z,4.00
2023-03-11T14:57:07.873Z,4.00
2023-03-11T15:02:43.508Z,6.50
2023-03-11T15:07:49.198Z,9.33
2023-03-11T15:13:05.108Z,3.00
2023-03-11T15:18:27.470Z,8.00
2023-03-11T15:23:30.933Z,6.00
2023-03-11T15:28:36.996Z,1.67
2023-03-11T15:33:40.518Z,4.00
2023-03-11T15:38:43.775Z,6.00
2023-03-11T15:43:50.398Z,12.00
2023-03-11T15:48:53.937Z,3.00
2023-03-11T15:53:57.598Z,6.00
2023-03-11T15:59:00.910Z,14.33
2023-03-11T16:04:04.435Z,10.00
2023-03-11T16:09:08.017Z,6.00
2023-03-11T16:14:20.261Z,7.00
2023-03-11T16:19:23.666Z,11.50
2023-03-11T16:24:27.776Z,15.00
2023-03-11T16:29:31.196Z,14.00
2023-03-11T16:34:34.727Z,14.00
2023-03-11T16:39:38.970Z,13.00
2023-03-11T16:44:42.248Z,10.33
2023-03-11T16:49:45.523Z,12.00
2023-03-11T16:54:51.339Z,20.33
2023-03-11T16:59:55.633Z,20.00
2023-03-11T17:04:59.494Z,18.50
2023-03-11T17:10:02.871Z,21.50
2023-03-11T17:15:06.981Z,16.00
2023-03-11T17:20:11.326Z,15.00
2023-03-11T17:25:14.715Z,17.00
2023-03-11T17:30:35.545Z,3.00
2023-03-11T17:35:41.166Z,8.00
2023-03-11T17:40:46.360Z,7.67
2023-03-11T17:45:49.769Z,12.00
2023-03-11T17:50:53.044Z,9.00
2023-03-11T17:55:56.249Z,12.00
2023-03-11T18:00:59.795Z,6.00
2023-03-11T18:06:05.440Z,6.67
2023-03-11T18:11:11.537Z,4.00
2023-03-11T18:16:20.715Z,2.00
2023-03-11T18:21:29.776Z,7.00
2023-03-11T18:26:33.025Z,9.00
2023-03-11T18:31:36.337Z,4.00
2023-03-11T18:36:41.433Z,2.00
2023-03-11T18:41:44.978Z,6.00
2023-03-11T18:46:48.139Z,3.67
2023-03-11T18:51:52.957Z,4.00
2023-03-11T18:56:56.171Z,4.00
2023-03-11T19:01:59.370Z,7.00
2023-03-11T19:07:02.572Z,6.00
2023-03-11T19:12:05.987Z,11.00
2023-03-11T19:17:09.314Z,10.00
2023-03-11T19:22:12.702Z,3.00
2023-03-11T19:27:16.010Z,3.00
2023-03-11T19:32:19.382Z,7.67
2023-03-11T19:37:25.504Z,9.00
2023-03-11T19:42:28.928Z,0.00
2023-03-11T19:47:32.469Z,0.00
2023-03-11T19:52:36.370Z,7.00
2023-03-11T19:57:40.300Z,9.00
2023-03-11T20:02:44.252Z,11.00
2023-03-11T20:07:48.448Z,13.00
2023-03-11T20:13:02.145Z,14.67
2023-03-11T20:18:07.645Z,16.50
2023-03-11T20:23:12.637Z,18.00
2023-03-11T20:28:16.440Z,10.00
2023-03-11T20:33:20.178Z,10.50
2023-03-11T20:38:23.770Z,5.00
2023-03-11T20:43:27.149Z,14.50
2023-03-11T20:48:30.870Z,12.50
2023-03-11T20:53:35.059Z,12.50
2023-03-11T20:58:38.842Z,6.00
2023-03-11T21:03:43.832Z,6.00
2023-03-11T21:08:49.042Z,9.33
2023-03-11T21:13:53.095Z,7.00
2023-03-11T21:18:56.852Z,9.00
2023-03-11T21:24:00.725Z,7.00
2023-03-11T21:29:04.614Z,9.67
2023-03-11T21:34:10.910Z,16.00
2023-03-11T21:39:15.407Z,12.00
2023-03-11T21:44:19.444Z,9.00
2023-03-11T21:49:23.465Z,10.00
2023-03-11T21:54:27.452Z,3.00
2023-03-11T21:59:31.353Z,21.00
2023-03-11T22:04:35.174Z,12.00
2023-03-11T22:09:38.601Z,12.50
2023-03-11T22:14:42.111Z,14.00
2023-03-11T22:19:45.617Z,18.00
2023-03-11T22:24:48.873Z,13.00
2023-03-11T22:29:52.341Z,24.00
2023-03-11T22:34:55.778Z,16.00
2023-03-11T22:39:59.049Z,20.00
2023-03-11T22:45:03.796Z,13.00
2023-03-11T22:50:08.387Z,9.00
2023-03-11T22:55:12.180Z,16.00
2023-03-11T23:00:19.072Z,11.00
2023-03-11T23:05:23.474Z,22.00
2023-03-11T23:10:27.193Z,22.00
2023-03-11T23:15:30.610Z,20.50
2023-03-11T23:20:39.339Z,22.00
2023-03-11T23:25:43.254Z,15.00
2023-03-11T23:30:46.702Z,16.00
2023-03-11T23:35:49.916Z,14.00
2023-03-11T23:40:54.557Z,15.00
2023-03-11T23:45:58.578Z,6.67
2023-03-11T23:51:02.281Z,15.00
2023-03-11T23:56:11.159Z,12.50
